createdAt,value
2022-08-30T00:00:36.945Z,2.72
2022-08-30T00:03:07.152Z,2.50
2022-08-30T00:05:34.234Z,2.28
2022-08-30T00:08:01.229Z,2.47
2022-08-30T00:10:33.494Z,2.78
2022-08-30T00:13:01.045Z,3.22
2022-08-30T00:15:29.174Z,3.00
2022-08-30T00:17:55.728Z,2.78
2022-08-30T00:20:26.393Z,2.42
2022-08-30T00:22:55.435Z,2.78
2022-08-30T00:25:24.777Z,3.10
2022-08-30T00:27:53.884Z,2.88
2022-08-30T00:30:21.372Z,3.05
2022-08-30T00:32:48.511Z,3.05
2022-08-30T00:35:20.465Z,3.63
2022-08-30T00:37:47.807Z,3.00
2022-08-30T00:40:17.903Z,3.08
2022-08-30T00:42:44.895Z,2.80
2022-08-30T00:45:29.898Z,3.40
2022-08-30T00:47:58.663Z,2.88
2022-08-30T00:50:29.294Z,2.97
2022-08-30T00:52:58.360Z,3.00
2022-08-30T00:55:27.596Z,3.00
2022-08-30T00:57:59.332Z,2.85
2022-08-30T01:00:27.678Z,2.88
2022-08-30T01:02:54.288Z,2.67
2022-08-30T01:05:21.327Z,2.67
2022-08-30T01:07:50.027Z,2.72
2022-08-30T01:10:17.109Z,3.10
2022-08-30T01:12:48.915Z,2.90
2022-08-30T01:15:15.853Z,2.95
2022-08-30T01:17:44.700Z,2.80
2022-08-30T01:20:36.687Z,2.60
2022-08-30T01:23:18.380Z,2.55
2022-08-30T01:25:46.639Z,2.80
2022-08-30T01:28:23.532Z,3.05
2022-08-30T01:30:52.665Z,2.70
2022-08-30T01:33:20.780Z,2.80
2022-08-30T01:35:56.291Z,2.80
2022-08-30T01:38:26.493Z,3.08
2022-08-30T01:40:57.953Z,2.95
2022-08-30T01:43:24.344Z,3.05
2022-08-30T01:45:50.983Z,2.67
2022-08-30T01:48:22.038Z,2.70
2022-08-30T01:50:55.422Z,3.28
2022-08-30T01:53:26.730Z,3.53
2022-08-30T01:55:53.183Z,3.25
2022-08-30T01:58:22.424Z,3.50
2022-08-30T02:00:51.782Z,3.13
2022-08-30T02:03:19.907Z,3.33
2022-08-30T02:05:49.164Z,3.40
2022-08-30T02:08:15.611Z,3.35
2022-08-30T02:10:42.019Z,3.72
2022-08-30T02:13:13.272Z,2.80
2022-08-30T02:15:42.085Z,3.00
2022-08-30T02:18:10.825Z,3.08
2022-08-30T02:20:39.141Z,3.88
2022-08-30T02:23:08.122Z,3.35
2022-08-30T02:25:36.949Z,3.25
2022-08-30T02:28:04.509Z,2.88
2022-08-30T02:30:31.053Z,2.88
2022-08-30T02:32:57.623Z,3.45
2022-08-30T02:35:26.303Z,3.38
2022-08-30T02:37:52.952Z,3.33
2022-08-30T02:40:22.286Z,3.15
2022-08-30T02:42:52.321Z,2.83
2022-08-30T02:45:18.754Z,3.33
2022-08-30T02:47:47.084Z,3.40
2022-08-30T02:50:14.217Z,3.30
2022-08-30T02:52:40.634Z,3.40
2022-08-30T02:55:08.595Z,3.28
2022-08-30T02:57:35.571Z,3.53
2022-08-30T03:00:02.191Z,2.92
2022-08-30T03:02:30.248Z,3.33
2022-08-30T03:04:57.613Z,2.97
2022-08-30T03:07:24.036Z,3.28
2022-08-30T03:09:50.461Z,3.38
2022-08-30T03:12:16.894Z,3.85
2022-08-30T03:14:45.328Z,3.38
2022-08-30T03:17:15.445Z,3.70
2022-08-30T03:19:47.273Z,3.25
2022-08-30T03:22:18.546Z,3.53
2022-08-30T03:24:45.802Z,3.63
2022-08-30T03:27:12.408Z,3.00
2022-08-30T03:29:39.299Z,4.00
2022-08-30T03:32:06.888Z,3.70
2022-08-30T03:34:35.770Z,3.72
2022-08-30T03:37:04.827Z,3.60
2022-08-30T03:39:31.883Z,3.60
2022-08-30T03:42:01.006Z,3.05
2022-08-30T03:44:31.331Z,3.38
2022-08-30T03:46:57.782Z,3.20
2022-08-30T03:49:26.605Z,2.95
2022-08-30T03:51:53.036Z,3.17
2022-08-30T03:54:19.450Z,3.47
2022-08-30T03:56:45.935Z,3.65
2022-08-30T03:59:14.663Z,3.67
2022-08-30T04:01:45.599Z,3.85
2022-08-30T04:04:12.270Z,3.58
2022-08-30T04:06:41.252Z,3.40
2022-08-30T04:09:10.091Z,3.40
2022-08-30T04:11:38.785Z,3.60
2022-08-30T04:14:05.261Z,3.30
2022-08-30T04:16:31.783Z,3.25
2022-08-30T04:19:00.516Z,3.60
2022-08-30T04:21:27.227Z,2.85
2022-08-30T04:23:53.770Z,3.28
2022-08-30T04:26:20.266Z,3.92
2022-08-30T04:28:46.751Z,3.30
2022-08-30T04:31:15.816Z,3.38
2022-08-30T04:33:44.789Z,3.80
2022-08-30T04:36:14.164Z,3.53
2022-08-30T04:38:41.410Z,3.88
2022-08-30T04:41:19.282Z,3.65
2022-08-30T04:43:47.183Z,3.00
2022-08-30T04:46:19.087Z,3.53
2022-08-30T04:48:46.488Z,3.58
2022-08-30T04:51:16.888Z,3.70
2022-08-30T04:53:44.455Z,4.00
2022-08-30T04:56:16.472Z,3.50
2022-08-30T04:58:44.243Z,3.30
2022-08-30T05:01:23.739Z,3.55
2022-08-30T05:03:51.478Z,3.05
2022-08-30T05:06:18.502Z,3.47
2022-08-30T05:08:49.741Z,3.28
2022-08-30T05:11:16.906Z,3.50
2022-08-30T05:13:44.219Z,3.60
2022-08-30T05:16:13.332Z,3.80
2022-08-30T05:18:39.883Z,3.60
2022-08-30T05:21:23.653Z,2.78
2022-08-30T05:23:50.571Z,3.30
2022-08-30T05:26:22.560Z,4.05
2022-08-30T05:28:57.636Z,4.00
2022-08-30T05:31:32.439Z,4.28
2022-08-30T05:33:59.212Z,3.38
2022-08-30T05:36:28.495Z,3.70
2022-08-30T05:38:55.667Z,4.15
2022-08-30T05:41:27.131Z,3.28
2022-08-30T05:44:00.785Z,3.70
2022-08-30T05:46:29.784Z,3.80
2022-08-30T05:48:56.965Z,3.70
2022-08-30T05:51:28.762Z,3.45
2022-08-30T05:53:59.052Z,4.95
2022-08-30T05:56:30.806Z,5.47
2022-08-30T05:58:57.361Z,5.05
2022-08-30T06:01:28.967Z,5.22
2022-08-30T06:04:00.336Z,5.82
2022-08-30T06:06:32.258Z,6.18
2022-08-30T06:09:01.037Z,5.53
2022-08-30T06:11:32.873Z,5.68
2022-08-30T06:13:59.328Z,5.22
2022-08-30T06:16:30.636Z,4.88
2022-08-30T06:18:58.014Z,5.40
2022-08-30T06:21:34.635Z,5.15
2022-08-30T06:24:01.511Z,5.00
2022-08-30T06:26:28.636Z,3.60
2022-08-30T06:28:56.129Z,5.53
2022-08-30T06:31:24.112Z,4.88
2022-08-30T06:33:51.737Z,4.68
2022-08-30T06:36:21.415Z,5.20
2022-08-30T06:38:50.490Z,4.50
2022-08-30T06:41:19.412Z,4.72
2022-08-30T06:43:49.035Z,4.88
2022-08-30T06:46:21.993Z,5.15
2022-08-30T06:48:48.763Z,5.20
2022-08-30T06:51:26.279Z,4.43
2022-08-30T06:53:53.723Z,4.75
2022-08-30T06:56:22.250Z,5.18
2022-08-30T06:58:49.992Z,4.90
2022-08-30T07:01:22.034Z,4.35
2022-08-30T07:03:49.058Z,4.75
2022-08-30T07:06:16.112Z,4.20
2022-08-30T07:08:45.414Z,3.90
2022-08-30T07:11:12.123Z,4.20
2022-08-30T07:13:41.085Z,3.95
2022-08-30T07:16:14.719Z,3.40
2022-08-30T07:18:55.884Z,3.80
2022-08-30T07:21:26.372Z,2.85
2022-08-30T07:23:55.183Z,4.50
2022-08-30T07:26:26.491Z,3.45
2022-08-30T07:28:56.254Z,4.00
2022-08-30T07:31:23.864Z,4.07
2022-08-30T07:33:50.394Z,4.25
2022-08-30T07:36:19.554Z,3.90
2022-08-30T07:38:46.797Z,3.92
2022-08-30T07:41:28.197Z,3.08
2022-08-30T07:43:55.551Z,3.90
2022-08-30T07:46:22.606Z,3.88
2022-08-30T07:48:49.926Z,4.43
2022-08-30T07:51:20.149Z,4.35
2022-08-30T07:53:47.089Z,3.55
2022-08-30T07:56:14.703Z,3.97
2022-08-30T07:58:41.412Z,4.47
2022-08-30T08:01:09.923Z,4.65
2022-08-30T08:03:42.189Z,3.75
2022-08-30T08:06:10.715Z,3.90
2022-08-30T08:08:37.910Z,3.95
2022-08-30T08:11:16.083Z,4.90
2022-08-30T08:13:53.235Z,3.72
2022-08-30T08:16:25.365Z,3.72
2022-08-30T08:18:52.686Z,4.55
2022-08-30T08:21:21.114Z,3.40
2022-08-30T08:23:47.645Z,4.50
2022-08-30T08:26:16.544Z,4.03
2022-08-30T08:28:43.532Z,3.25
2022-08-30T08:31:33.515Z,3.45
2022-08-30T08:34:02.560Z,4.72
2022-08-30T08:36:31.192Z,3.67
2022-08-30T08:38:57.759Z,4.03
2022-08-30T08:42:03.895Z,3.10
2022-08-30T08:44:55.396Z,2.90
2022-08-30T08:47:51.017Z,2.97
2022-08-30T08:50:21.837Z,3.08
2022-08-30T08:53:46.299Z,2.95
2022-08-30T08:56:17.286Z,3.40
2022-08-30T08:58:50.169Z,3.50
2022-08-30T09:01:18.524Z,3.10
2022-08-30T09:03:45.878Z,2.97
2022-08-30T09:06:49.835Z,3.50
2022-08-30T09:09:19.137Z,3.40
2022-08-30T09:11:49.005Z,3.20
2022-08-30T09:14:22.888Z,3.33
2022-08-30T09:16:51.761Z,4.10
2022-08-30T09:19:27.093Z,3.17
2022-08-30T09:22:16.034Z,3.58
2022-08-30T09:24:47.684Z,3.20
2022-08-30T09:27:15.825Z,2.80
2022-08-30T09:30:05.050Z,3.20
2022-08-30T09:32:52.433Z,3.03
2022-08-30T09:35:41.579Z,3.38
2022-08-30T09:38:28.996Z,3.20
2022-08-30T09:41:02.339Z,3.00
2022-08-30T09:43:31.951Z,2.70
2022-08-30T09:46:01.532Z,3.13
2022-08-30T09:48:31.112Z,2.90
2022-08-30T09:51:13.151Z,2.97
2022-08-30T09:54:16.569Z,3.67
2022-08-30T09:56:40.780Z,3.10
2022-08-30T09:59:09.964Z,3.45
2022-08-30T10:01:46.382Z,3.03
2022-08-30T10:04:50.430Z,2.92
2022-08-30T10:07:22.663Z,3.80
2022-08-30T10:10:10.850Z,3.30
2022-08-30T10:12:42.299Z,3.25
2022-08-30T10:15:25.857Z,3.38
2022-08-30T10:18:17.666Z,8.25
2022-08-30T10:21:06.728Z,2.92
2022-08-30T10:23:37.694Z,3.53
2022-08-30T10:26:21.909Z,3.13
2022-08-30T10:28:55.940Z,2.80
2022-08-30T10:31:31.424Z,3.33
2022-08-30T10:34:02.632Z,3.25
2022-08-30T10:36:40.575Z,2.53
2022-08-30T10:39:09.467Z,3.35
2022-08-30T10:41:48.567Z,2.50
2022-08-30T10:44:26.962Z,2.78
2022-08-30T10:47:24.556Z,2.95
2022-08-30T10:49:57.953Z,2.60
2022-08-30T10:52:48.107Z,2.60
2022-08-30T10:55:22.060Z,3.53
2022-08-30T10:57:48.854Z,2.75
2022-08-30T11:00:28.715Z,2.90
2022-08-30T11:03:23.064Z,2.83
2022-08-30T11:06:27.608Z,3.05
2022-08-30T11:09:09.263Z,3.03
2022-08-30T11:11:40.670Z,3.80
2022-08-30T11:14:10.021Z,3.40
2022-08-30T11:16:42.152Z,3.53
2022-08-30T11:19:21.781Z,2.75
2022-08-30T11:21:49.632Z,3.17
2022-08-30T11:24:22.610Z,3.10
2022-08-30T11:26:48.995Z,3.65
2022-08-30T11:29:31.712Z,3.00
2022-08-30T11:32:11.811Z,2.35
2022-08-30T11:34:47.094Z,2.95
2022-08-30T11:37:13.512Z,3.17
2022-08-30T11:39:47.276Z,3.20
2022-08-30T11:42:29.543Z,3.25
2022-08-30T11:45:36.155Z,3.35
2022-08-30T11:48:07.406Z,3.55
2022-08-30T11:50:48.935Z,3.25
2022-08-30T11:53:28.010Z,3.53
2022-08-30T11:56:04.198Z,3.50
2022-08-30T11:58:44.058Z,3.28
2022-08-30T12:01:32.063Z,3.00
2022-08-30T12:04:17.245Z,2.85
2022-08-30T12:06:59.832Z,3.05
2022-08-30T12:09:30.048Z,3.00
2022-08-30T12:11:58.000Z,3.60
2022-08-30T12:14:41.004Z,3.50
2022-08-30T12:18:15.717Z,3.20
2022-08-30T12:20:50.252Z,3.10
2022-08-30T12:23:23.174Z,3.22
2022-08-30T12:25:50.051Z,3.30
2022-08-30T12:28:25.885Z,3.45
2022-08-30T12:30:53.154Z,2.88
2022-08-30T12:33:40.343Z,4.00
2022-08-30T12:36:15.908Z,3.50
2022-08-30T12:38:42.802Z,2.90
2022-08-30T12:41:22.578Z,3.67
2022-08-30T12:43:51.912Z,3.50
2022-08-30T12:46:20.185Z,3.22
2022-08-30T12:48:48.107Z,3.22
2022-08-30T12:51:35.269Z,3.53
2022-08-30T12:54:28.320Z,3.10
2022-08-30T12:57:19.313Z,2.92
2022-08-30T12:59:56.771Z,3.45
2022-08-30T13:02:30.703Z,3.20
2022-08-30T13:04:57.378Z,2.95
2022-08-30T13:07:29.773Z,3.35
2022-08-30T13:10:03.872Z,3.10
2022-08-30T13:12:30.535Z,2.88
2022-08-30T13:15:10.300Z,3.38
2022-08-30T13:17:39.224Z,3.25
2022-08-30T13:20:22.020Z,3.35
2022-08-30T13:23:11.786Z,3.10
2022-08-30T13:25:41.991Z,3.08
2022-08-30T13:28:10.862Z,3.33
2022-08-30T13:30:42.510Z,3.42
2022-08-30T13:33:11.414Z,3.25
2022-08-30T13:35:37.928Z,3.50
2022-08-30T13:38:08.534Z,3.00
2022-08-30T13:40:37.433Z,3.05
2022-08-30T13:43:04.286Z,3.13
2022-08-30T13:45:45.952Z,3.22
2022-08-30T13:48:17.317Z,2.85
2022-08-30T13:50:53.621Z,3.17
2022-08-30T13:53:51.811Z,3.35
2022-08-30T13:56:07.001Z,2.70
2022-08-30T13:58:33.760Z,3.20
2022-08-30T14:01:03.165Z,3.55
2022-08-30T14:03:29.709Z,2.70
2022-08-30T14:06:15.496Z,3.35
2022-08-30T14:08:48.560Z,3.05
2022-08-30T14:11:19.643Z,3.38
2022-08-30T14:16:37.377Z,3.22
2022-08-30T14:19:07.522Z,3.20
2022-08-30T14:21:34.616Z,3.08
2022-08-30T14:24:04.743Z,3.00
2022-08-30T14:26:54.597Z,3.38
2022-08-30T14:29:26.090Z,3.15
2022-08-30T14:31:55.079Z,3.58
2022-08-30T14:34:22.974Z,3.20
2022-08-30T14:36:52.134Z,3.15
2022-08-30T14:39:20.521Z,3.13
2022-08-30T14:41:50.188Z,3.30
2022-08-30T14:44:20.946Z,3.90
2022-08-30T14:46:52.189Z,3.20
2022-08-30T14:49:20.353Z,3.10
2022-08-30T14:51:48.335Z,3.20
2022-08-30T14:54:16.781Z,3.10
2022-08-30T14:56:46.237Z,2.67
2022-08-30T14:59:16.306Z,2.72
2022-08-30T15:01:45.533Z,3.47
2022-08-30T15:04:15.496Z,3.33
2022-08-30T15:06:44.215Z,3.42
2022-08-30T15:09:15.292Z,3.08
2022-08-30T15:11:46.919Z,2.90
2022-08-30T15:14:16.138Z,3.25
2022-08-30T15:16:45.188Z,3.47
2022-08-30T15:19:12.787Z,3.13
2022-08-30T15:21:42.326Z,3.00
2022-08-30T15:24:14.157Z,3.60
2022-08-30T15:26:44.062Z,3.30
2022-08-30T15:29:12.020Z,3.58
2022-08-30T15:31:40.478Z,3.17
2022-08-30T15:34:08.967Z,3.22
2022-08-30T15:36:38.920Z,3.22
2022-08-30T15:39:05.944Z,3.63
2022-08-30T15:41:37.783Z,3.65
2022-08-30T15:44:06.953Z,3.08
2022-08-30T15:46:40.978Z,3.85
2022-08-30T15:49:16.117Z,4.20
2022-08-30T15:51:45.831Z,3.20
2022-08-30T15:54:17.136Z,3.60
2022-08-30T15:56:43.735Z,3.65
2022-08-30T15:59:15.194Z,3.40
2022-08-30T16:01:45.036Z,3.22
2022-08-30T16:04:17.003Z,3.80
2022-08-30T16:06:45.125Z,3.45
2022-08-30T16:09:16.312Z,3.38
2022-08-30T16:11:47.557Z,3.60
2022-08-30T16:14:14.311Z,3.30
2022-08-30T16:16:43.105Z,4.00
2022-08-30T16:19:12.354Z,3.20
2022-08-30T16:21:41.019Z,3.45
2022-08-30T16:24:10.518Z,3.35
2022-08-30T16:26:40.255Z,3.22
2022-08-30T16:29:08.799Z,3.45
2022-08-30T16:31:35.937Z,3.30
2022-08-30T16:34:05.718Z,3.20
2022-08-30T16:36:35.865Z,3.53
2022-08-30T16:39:04.563Z,3.50
2022-08-30T16:41:35.416Z,3.80
2022-08-30T16:44:03.664Z,3.38
2022-08-30T16:46:33.416Z,3.83
2022-08-30T16:49:02.964Z,3.90
2022-08-30T16:51:35.764Z,3.50
2022-08-30T16:54:04.936Z,3.85
2022-08-30T16:56:34.069Z,3.33
2022-08-30T16:59:07.038Z,3.33
2022-08-30T17:01:41.031Z,3.58
2022-08-30T17:04:10.581Z,3.53
2022-08-30T17:06:42.119Z,3.63
2022-08-30T17:09:09.321Z,3.58
2022-08-30T17:11:36.586Z,3.70
2022-08-30T17:14:03.927Z,3.53
2022-08-30T17:16:33.184Z,3.40
2022-08-30T17:19:01.273Z,2.97
2022-08-30T17:21:33.542Z,3.83
2022-08-30T17:24:01.421Z,3.22
2022-08-30T17:26:31.923Z,4.03
2022-08-30T17:28:58.481Z,3.83
2022-08-30T17:31:30.235Z,3.60
2022-08-30T17:34:02.888Z,4.05
2022-08-30T17:36:31.869Z,3.78
2022-08-30T17:39:00.858Z,3.60
2022-08-30T17:41:27.380Z,3.60
2022-08-30T17:43:56.034Z,3.30
2022-08-30T17:46:22.563Z,3.75
2022-08-30T17:49:01.275Z,3.70
2022-08-30T17:51:29.397Z,3.30
2022-08-30T17:53:56.614Z,3.67
2022-08-30T17:56:23.912Z,3.63
2022-08-30T17:59:00.805Z,3.20
2022-08-30T18:01:31.229Z,3.42
2022-08-30T18:04:01.992Z,3.72
2022-08-30T18:06:34.937Z,3.50
2022-08-30T18:09:03.340Z,3.75
2022-08-30T18:11:29.866Z,3.75
2022-08-30T18:13:58.736Z,3.50
2022-08-30T18:16:27.542Z,3.80
2022-08-30T18:18:57.224Z,3.28
2022-08-30T18:21:28.466Z,3.75
2022-08-30T18:23:56.145Z,3.60
2022-08-30T18:26:25.061Z,3.70
2022-08-30T18:28:51.840Z,3.97
2022-08-30T18:31:18.259Z,3.95
2022-08-30T18:33:47.461Z,4.18
2022-08-30T18:36:14.215Z,3.30
2022-08-30T18:38:42.456Z,3.50
2022-08-30T18:41:13.756Z,3.40
2022-08-30T18:43:43.072Z,3.63
2022-08-30T18:46:13.543Z,3.30
2022-08-30T18:48:41.274Z,3.15
2022-08-30T18:51:21.079Z,3.90
2022-08-30T18:53:51.460Z,3.83
2022-08-30T18:56:17.915Z,3.67
2022-08-30T18:58:48.277Z,3.90
2022-08-30T19:01:22.776Z,3.97
2022-08-30T19:03:51.984Z,3.47
2022-08-30T19:06:21.613Z,3.90
2022-08-30T19:08:51.015Z,3.50
2022-08-30T19:11:22.545Z,3.40
2022-08-30T19:13:52.232Z,3.05
2022-08-30T19:16:20.184Z,3.72
2022-08-30T19:18:49.233Z,3.15
2022-08-30T19:21:15.686Z,3.10
2022-08-30T19:23:43.388Z,3.10
2022-08-30T19:26:10.898Z,3.20
2022-08-30T19:28:37.692Z,3.17
2022-08-30T19:31:06.631Z,3.30
2022-08-30T19:33:36.088Z,2.90
2022-08-30T19:36:05.009Z,2.88
2022-08-30T19:38:33.817Z,2.92
2022-08-30T19:41:05.301Z,2.75
2022-08-30T19:43:31.872Z,3.17
2022-08-30T19:45:59.823Z,2.95
2022-08-30T19:48:32.677Z,2.92
2022-08-30T19:51:06.613Z,3.35
2022-08-30T19:53:39.015Z,2.63
2022-08-30T19:56:07.971Z,2.80
2022-08-30T19:58:34.526Z,2.33
2022-08-30T20:01:13.214Z,2.22
2022-08-30T20:03:49.052Z,2.20
2022-08-30T20:06:19.082Z,2.60
2022-08-30T20:08:46.647Z,2.70
2022-08-30T20:11:17.821Z,2.70
2022-08-30T20:13:49.767Z,2.35
2022-08-30T20:16:16.871Z,2.58
2022-08-30T20:18:48.811Z,2.60
2022-08-30T20:21:15.644Z,2.85
2022-08-30T20:23:43.193Z,2.70
2022-08-30T20:26:10.647Z,2.58
2022-08-30T20:28:37.524Z,2.60
2022-08-30T20:31:05.555Z,2.58
2022-08-30T20:33:32.368Z,2.70
2022-08-30T20:36:02.594Z,2.95
2022-08-30T20:38:29.290Z,2.38
2022-08-30T20:40:57.555Z,2.47
2022-08-30T20:43:28.982Z,3.05
2022-08-30T20:45:56.030Z,2.95
2022-08-30T20:48:27.034Z,2.33
2022-08-30T20:50:53.450Z,2.53
2022-08-30T20:53:24.765Z,2.67
2022-08-30T20:55:53.475Z,2.38
2022-08-30T20:58:22.919Z,2.60
2022-08-30T21:00:52.959Z,2.53
2022-08-30T21:03:27.791Z,2.63
2022-08-30T21:05:55.283Z,2.20
2022-08-30T21:08:24.953Z,2.35
2022-08-30T21:10:54.504Z,2.30
2022-08-30T21:13:21.303Z,2.40
2022-08-30T21:15:52.005Z,2.40
2022-08-30T21:18:23.231Z,2.17
2022-08-30T21:20:54.510Z,2.40
2022-08-30T21:23:23.215Z,2.58
2022-08-30T21:25:52.041Z,2.70
2022-08-30T21:28:19.628Z,2.45
2022-08-30T21:30:46.325Z,2.47
2022-08-30T21:33:14.949Z,2.30
2022-08-30T21:35:59.988Z,2.30
2022-08-30T21:38:28.646Z,2.38
2022-08-30T21:40:55.058Z,2.35
2022-08-30T21:43:21.450Z,2.00
2022-08-30T21:45:50.168Z,2.20
2022-08-30T21:48:16.840Z,2.13
2022-08-30T21:50:43.642Z,2.53
2022-08-30T21:53:10.493Z,2.30
2022-08-30T21:55:37.152Z,2.15
2022-08-30T21:58:08.454Z,2.13
2022-08-30T22:00:34.869Z,2.55
2022-08-30T22:03:03.847Z,2.45
2022-08-30T22:05:30.301Z,2.20
2022-08-30T22:07:59.500Z,2.03
2022-08-30T22:10:32.866Z,2.40
2022-08-30T22:13:02.060Z,2.13
2022-08-30T22:15:32.492Z,2.80
2022-08-30T22:18:01.290Z,2.53
2022-08-30T22:20:27.774Z,2.45
2022-08-30T22:22:59.340Z,2.22
2022-08-30T22:25:28.153Z,2.50
2022-08-30T22:27:54.606Z,2.60
2022-08-30T22:30:21.011Z,2.60
2022-08-30T22:32:49.760Z,2.78
2022-08-30T22:35:20.234Z,2.45
2022-08-30T22:37:53.554Z,2.60
2022-08-30T22:40:20.436Z,2.90
2022-08-30T22:42:48.485Z,2.38
2022-08-30T22:45:17.635Z,2.35
2022-08-30T22:47:46.425Z,2.60
2022-08-30T22:50:15.360Z,2.45
2022-08-30T22:52:41.921Z,2.45
2022-08-30T22:55:08.851Z,2.42
2022-08-30T22:57:39.715Z,2.30
2022-08-30T23:00:10.604Z,2.08
2022-08-30T23:02:37.161Z,2.10
2022-08-30T23:05:04.923Z,2.60
2022-08-30T23:07:33.843Z,2.30
2022-08-30T23:10:00.340Z,2.50
2022-08-30T23:12:27.087Z,2.30
2022-08-30T23:14:55.887Z,2.42
2022-08-30T23:17:24.828Z,2.92
2022-08-30T23:19:52.740Z,2.50
2022-08-30T23:22:19.127Z,2.78
2022-08-30T23:25:05.012Z,2.60
2022-08-30T23:27:58.903Z,2.70
2022-08-30T23:30:44.282Z,2.33
2022-08-30T23:33:31.770Z,2.95
2022-08-30T23:36:16.499Z,2.88
2022-08-30T23:39:01.843Z,2.53
2022-08-30T23:41:49.782Z,2.40
2022-08-30T23:44:34.908Z,2.40
2022-08-30T23:47:19.970Z,2.53
2022-08-30T23:50:05.131Z,3.00
2022-08-30T23:52:50.346Z,3.00
2022-08-30T23:55:35.371Z,3.05
2022-08-30T23:58:23.037Z,3.17
